Time;durP1;ratioP1;P1;durP2;ratioP2;P2;SDS_P1;SDS_P2;PMS_P1;PMS_P2;Temp;Humidity;BMP_temperature;BMP_pressure;BME280_temperature;BME280_humidity;BME280_pressure;Samples;Min_cycle;Max_cycle;Signal;HPM_P1;HPM_P2
2022/10/02 00:00:35;;;;;;;3.00;1.83;;;;;;;13.23;100.00;99483.91;6298630;28;20083;-79
2022/10/02 00:03:41;;;;;;;3.72;2.10;;;;;;;13.27;100.00;99493.16;6297384;28;20040;-80
2022/10/02 00:06:46;;;;;;;3.35;1.92;;;;;;;13.30;100.00;99490.31;6297286;28;20515;-80
2022/10/02 00:10:15;;;;;;;2.10;1.90;;;;;;;13.32;100.00;99500.69;6298739;28;20066;-80
2022/10/02 00:13:25;;;;;;;4.50;2.17;;;;;;;13.30;100.00;99511.28;6298208;28;20685;-80
2022/10/02 00:16:40;;;;;;;2.38;1.85;;;;;;;13.22;100.00;99504.03;6298131;28;20446;-79
2022/10/02 00:19:41;;;;;;;2.97;2.00;;;;;;;13.00;100.00;99507.53;6296943;28;20045;-79
2022/10/02 00:22:42;;;;;;;2.28;1.80;;;;;;;12.92;100.00;99509.09;6296694;28;20515;-79
2022/10/02 00:26:00;;;;;;;2.03;1.70;;;;;;;13.09;100.00;99508.56;6296845;28;20557;-79
2022/10/02 00:29:20;;;;;;;2.75;2.00;;;;;;;13.01;100.00;99510.97;6297822;28;20070;-78
2022/10/02 00:32:45;;;;;;;4.13;2.67;;;;;;;13.00;100.00;99501.47;6297690;28;20068;-77
2022/10/02 00:35:59;;;;;;;4.22;2.30;;;;;;;12.98;100.00;99517.28;6296410;28;20036;-77
2022/10/02 00:39:35;;;;;;;2.45;2.05;;;;;;;12.93;100.00;99516.84;6295465;28;20506;-77
2022/10/02 00:43:06;;;;;;;5.53;2.65;;;;;;;12.90;100.00;99523.13;6297469;28;20539;-78
2022/10/02 00:46:26;;;;;;;4.82;2.65;;;;;;;12.71;100.00;99515.06;6296137;28;20045;-77
2022/10/02 00:50:06;;;;;;;4.43;2.40;;;;;;;12.80;100.00;99526.59;6295813;28;20109;-78
2022/10/02 00:53:06;;;;;;;5.00;2.70;;;;;;;12.69;100.00;99533.50;6296268;28;20492;-77
2022/10/02 00:56:32;;;;;;;4.15;2.78;;;;;;;12.69;100.00;99532.69;6297154;28;20044;-78
2022/10/02 00:59:55;;;;;;;3.55;2.70;;;;;;;12.63;100.00;99527.94;6295934;28;20040;-78
2022/10/02 01:03:02;;;;;;;4.40;2.90;;;;;;;12.61;100.00;99542.91;6295768;28;20076;-78
2022/10/02 01:06:03;;;;;;;4.30;2.85;;;;;;;12.56;100.00;99542.44;6295629;28;20041;-78
2022/10/02 01:09:04;;;;;;;4.97;2.90;;;;;;;12.47;100.00;99547.41;6296920;28;20037;-77
2022/10/02 01:12:06;;;;;;;4.75;2.90;;;;;;;12.51;100.00;99553.25;6296874;28;20036;-77
2022/10/02 01:15:19;;;;;;;6.22;3.45;;;;;;;12.52;100.00;99554.94;6295594;28;20117;-77
2022/10/02 01:18:21;;;;;;;4.65;3.08;;;;;;;12.34;100.00;99551.13;6295622;28;20132;-77
2022/10/02 01:21:44;;;;;;;4.00;2.95;;;;;;;12.32;100.00;99551.22;6278926;28;20075;-77
2022/10/02 01:24:47;;;;;;;5.45;2.88;;;;;;;12.36;100.00;99555.28;6295550;28;20036;-77
2022/10/02 01:27:51;;;;;;;5.50;2.95;;;;;;;12.28;100.00;99552.41;6295417;28;20089;-77
2022/10/02 01:31:00;;;;;;;3.70;2.58;;;;;;;12.22;100.00;99563.34;6295376;28;20472;-77
2022/10/02 01:34:01;;;;;;;4.00;2.60;;;;;;;12.19;100.00;99567.03;6295222;28;20044;-78
2022/10/02 01:37:02;;;;;;;3.58;2.45;;;;;;;12.18;100.00;99564.50;6296404;28;20415;-78
2022/10/02 01:40:10;;;;;;;3.28;2.45;;;;;;;12.13;100.00;99577.09;6296491;28;20044;-77
2022/10/02 01:43:26;;;;;;;3.42;2.22;;;;;;;12.14;100.00;99579.59;6295243;28;20041;-77
2022/10/02 01:46:41;;;;;;;3.45;2.40;;;;;;;12.17;100.00;99588.97;6295067;28;20458;-78
2022/10/02 01:49:54;;;;;;;2.75;2.28;;;;;;;12.12;100.00;99593.75;6295947;28;20519;-77
2022/10/02 01:53:19;;;;;;;3.70;2.47;;;;;;;12.12;100.00;99598.97;6295125;28;20044;-78
2022/10/02 01:56:31;;;;;;;3.90;2.22;;;;;;;12.05;100.00;99596.81;6278145;28;20136;-77
2022/10/02 01:59:47;;;;;;;3.83;2.50;;;;;;;12.02;100.00;99602.25;6278327;28;20750;-78
2022/10/02 02:03:07;;;;;;;3.00;2.20;;;;;;;11.89;100.00;99591.06;6294944;28;20078;-78
2022/10/02 02:06:40;;;;;;;2.63;2.00;;;;;;;11.81;100.00;99599.41;6296056;28;20093;-77
2022/10/02 02:09:43;;;;;;;2.78;2.13;;;;;;;11.91;100.00;99602.22;6296042;28;20041;-77
2022/10/02 02:13:12;;;;;;;2.78;1.83;;;;;;;11.84;100.00;99611.41;6296064;28;20040;-77
2022/10/02 02:16:22;;;;;;;2.30;1.75;;;;;;;11.81;100.00;99607.25;6295917;28;20048;-78
2022/10/02 02:19:36;;;;;;;2.40;1.85;;;;;;;11.88;100.00;99612.88;6296019;28;20087;-78
2022/10/02 02:22:43;;;;;;;2.30;1.70;;;;;;;11.84;100.00;99612.28;6296014;28;20044;-77
2022/10/02 02:25:48;;;;;;;2.85;1.95;;;;;;;11.85;100.00;99613.94;6295714;28;20435;-78
2022/10/02 02:28:54;;;;;;;2.42;1.90;;;;;;;11.83;100.00;99618.44;6294617;28;20048;-78
2022/10/02 02:31:56;;;;;;;2.13;1.67;;;;;;;11.78;100.00;99633.63;6295765;28;20045;-78
2022/10/02 02:35:04;;;;;;;2.13;1.73;;;;;;;11.77;100.00;99641.59;6294644;28;20040;-77
2022/10/02 02:38:11;;;;;;;2.55;1.83;;;;;;;11.76;100.00;99642.53;6294419;28;20036;-78
2022/10/02 02:41:18;;;;;;;3.47;2.10;;;;;;;11.75;100.00;99638.25;6294582;28;20056;-78
2022/10/02 02:44:27;;;;;;;2.75;2.15;;;;;;;11.66;100.00;99651.03;6294368;28;20048;-78
2022/10/02 02:47:39;;;;;;;3.35;1.80;;;;;;;11.69;100.00;99658.66;6294453;28;20424;-78
2022/10/02 02:50:44;;;;;;;2.35;1.85;;;;;;;11.69;100.00;99658.66;6294101;28;20492;-78
2022/10/02 02:54:11;;;;;;;4.20;2.17;;;;;;;11.70;100.00;99664.72;6294455;28;20041;-78
2022/10/02 02:57:16;;;;;;;2.72;1.85;;;;;;;11.61;100.00;99658.38;6291407;28;20080;-78
2022/10/02 03:00:18;;;;;;;2.33;2.00;;;;;;;11.60;100.00;99684.63;6295592;28;20059;-78
2022/10/02 03:03:19;;;;;;;2.05;1.67;;;;;;;11.55;100.00;99674.50;6296252;28;20067;-78
2022/10/02 03:06:36;;;;;;;2.42;1.98;;;;;;;11.56;100.00;99688.38;6299935;28;20602;-78
2022/10/02 03:09:39;;;;;;;3.30;2.00;;;;;;;11.42;100.00;99692.78;6298511;28;20078;-78
2022/10/02 03:13:23;;;;;;;2.35;1.75;;;;;;;11.33;100.00;99703.06;6298715;28;20045;-78
2022/10/02 03:16:42;;;;;;;4.68;1.85;;;;;;;11.25;100.00;99701.00;6299709;28;20040;-78
2022/10/02 03:19:50;;;;;;;2.17;1.67;;;;;;;11.17;100.00;99714.56;6298386;28;20054;-78
2022/10/02 03:22:51;;;;;;;2.55;2.08;;;;;;;11.11;100.00;99722.00;6299529;28;20048;-78
2022/10/02 03:25:59;;;;;;;2.72;1.90;;;;;;;10.99;100.00;99719.25;6298197;28;20052;-78
2022/10/02 03:29:04;;;;;;;2.60;2.05;;;;;;;10.97;100.00;99726.38;6297998;28;20041;-78
2022/10/02 03:32:07;;;;;;;1.85;1.65;;;;;;;10.96;100.00;99723.88;6298058;28;20067;-78
2022/10/02 03:35:11;;;;;;;2.13;1.75;;;;;;;10.96;100.00;99729.94;6299511;28;20037;-78
2022/10/02 03:38:13;;;;;;;3.47;1.80;;;;;;;10.93;100.00;99729.28;6299082;28;20032;-78
2022/10/02 03:41:14;;;;;;;2.20;1.60;;;;;;;10.85;100.00;99730.66;6299115;28;20052;-78
2022/10/02 03:44:15;;;;;;;1.83;1.63;;;;;;;10.79;100.00;99745.88;6297773;28;20079;-78
2022/10/02 03:47:15;;;;;;;2.22;1.52;;;;;;;10.69;100.00;99749.09;6297527;28;20052;-78
2022/10/02 03:50:17;;;;;;;2.67;1.80;;;;;;;10.59;100.00;99753.25;6297362;28;20960;-78
2022/10/02 03:53:21;;;;;;;2.17;1.80;;;;;;;10.68;100.00;99744.81;6298684;28;20041;-78
2022/10/02 03:56:34;;;;;;;2.35;1.48;;;;;;;10.71;100.00;99750.75;6297433;28;20068;-78
2022/10/02 03:59:41;;;;;;;2.95;1.77;;;;;;;10.66;100.00;99753.69;6297298;28;20079;-78
2022/10/02 04:02:54;;;;;;;4.95;2.05;;;;;;;10.68;100.00;99747.41;6298494;28;20119;-77
2022/10/02 04:06:14;;;;;;;2.25;2.00;;;;;;;10.71;100.00;99743.78;6298408;28;20036;-78
2022/10/02 04:09:31;;;;;;;2.70;1.85;;;;;;;10.71;100.00;99756.84;6297087;28;20044;-78
2022/10/02 04:12:39;;;;;;;3.17;2.05;;;;;;;10.61;100.00;99764.44;6298307;28;20047;-77
2022/10/02 04:15:55;;;;;;;1.85;1.50;;;;;;;10.60;100.00;99757.53;6298007;28;20040;-78
2022/10/02 04:19:21;;;;;;;6.60;1.85;;;;;;;10.66;100.00;99775.38;6298144;28;20052;-78
2022/10/02 04:22:44;;;;;;;4.97;1.88;;;;;;;10.59;100.00;99774.13;6296786;28;20036;-78
2022/10/02 04:25:51;;;;;;;2.42;1.88;;;;;;;10.69;100.00;99782.19;6296711;28;20059;-78
2022/10/02 04:29:05;;;;;;;1.85;1.50;;;;;;;10.72;100.00;99776.75;6297866;28;20047;-78
2022/10/02 04:32:28;;;;;;;1.90;1.45;;;;;;;10.79;100.00;99782.41;6296624;28;20514;-78
2022/10/02 04:35:45;;;;;;;2.05;1.58;;;;;;;10.72;100.00;99787.19;6297596;28;20052;-78
2022/10/02 04:38:58;;;;;;;2.80;2.08;;;;;;;10.73;100.00;99796.72;6297507;28;20435;-78
2022/10/02 04:42:20;;;;;;;2.00;1.58;;;;;;;10.74;100.00;99793.16;6296578;28;20067;-78
2022/10/02 04:45:27;;;;;;;1.77;1.55;;;;;;;10.74;100.00;99793.16;6296259;28;20040;-78
2022/10/02 04:48:38;;;;;;;2.55;1.67;;;;;;;10.70;100.00;99802.13;6296191;28;20040;-78
2022/10/02 04:51:42;;;;;;;1.92;1.65;;;;;;;10.72;100.00;99813.28;6295962;28;20501;-78
2022/10/02 04:54:55;;;;;;;2.53;1.70;;;;;;;10.73;100.00;99808.91;6297370;28;20041;-80
2022/10/02 04:57:58;;;;;;;;;;;;;;;10.72;100.00;99807.25;6297535;28;20051;-80
2022/10/02 05:01:17;;;;;;;1.98;1.58;;;;;;;10.76;100.00;99806.09;6297272;28;19959;-80
2022/10/02 05:04:37;;;;;;;2.67;2.00;;;;;;;10.72;100.00;99809.84;6279249;28;20522;-80
2022/10/02 05:08:04;;;;;;;3.08;1.63;;;;;;;10.76;100.00;99819.16;6295684;28;20044;-80
2022/10/02 05:11:23;;;;;;;2.88;1.70;;;;;;;10.78;100.00;99822.50;6296874;28;20090;-80
2022/10/02 05:14:45;;;;;;;5.97;1.38;;;;;;;10.77;100.00;99818.22;6295783;28;20476;-78
2022/10/02 05:17:46;;;;;;;1.63;1.40;;;;;;;10.81;100.00;99825.75;6295633;28;20151;-78
2022/10/02 05:21:10;;;;;;;2.85;1.58;;;;;;;10.86;100.00;99833.28;6296816;28;20048;-78
2022/10/02 05:24:56;;;;;;;2.78;1.90;;;;;;;10.94;100.00;99840.63;6295392;28;20129;-80
2022/10/02 05:28:24;;;;;;;3.22;1.75;;;;;;;10.97;100.00;99837.78;6248440;28;20053;-80
2022/10/02 05:31:47;;;;;;;7.47;2.10;;;;;;;11.07;100.00;99836.25;6296628;28;20071;-80
2022/10/02 05:35:23;;;;;;;2.55;1.30;;;;;;;11.19;100.00;99838.03;6295407;28;20044;-80
2022/10/02 05:38:44;;;;;;;2.75;1.73;;;;;;;11.27;100.00;99847.97;6280388;28;20064;-78
2022/10/02 05:42:00;;;;;;;1.80;1.40;;;;;;;11.34;100.00;99859.66;6296512;28;20041;-78
2022/10/02 05:45:19;;;;;;;2.83;1.80;;;;;;;11.41;100.00;99876.63;6296391;28;20121;-78
2022/10/02 05:48:31;;;;;;;2.33;1.52;;;;;;;11.54;100.00;99873.19;6278278;28;20059;-78
2022/10/02 05:51:58;;;;;;;2.42;1.60;;;;;;;11.67;100.00;99877.47;6294914;28;20106;-78
2022/10/02 05:55:12;;;;;;;2.85;1.50;;;;;;;11.71;100.00;99865.00;6296342;28;20036;-80
2022/10/02 05:58:19;;;;;;;2.30;1.75;;;;;;;11.96;100.00;99866.78;6295015;28;20072;-80
2022/10/02 06:01:35;;;;;;;1.42;1.27;;;;;;;12.04;100.00;99868.88;6296248;28;20404;-80
2022/10/02 06:04:48;;;;;;;3.72;1.55;;;;;;;12.14;100.00;99867.28;6278303;28;20135;-80
2022/10/02 06:07:55;;;;;;;4.53;1.55;;;;;;;12.19;100.00;99880.03;6295285;28;20041;-80
2022/10/02 06:11:02;;;;;;;5.65;1.27;;;;;;;12.26;100.00;99881.28;6296026;28;20045;-80
2022/10/02 06:14:39;;;;;;;1.90;1.30;;;;;;;12.27;100.00;99881.19;6296225;28;20044;-78
2022/10/02 06:17:47;;;;;;;1.30;1.20;;;;;;;12.24;100.00;99870.91;6263945;28;20064;-78
2022/10/02 06:20:52;;;;;;;2.92;1.38;;;;;;;12.53;100.00;99882.88;6298586;28;20446;-77
2022/10/02 06:23:56;;;;;;;1.63;1.13;;;;;;;12.64;100.00;99875.06;6294883;28;20507;-78
2022/10/02 06:27:03;;;;;;;1.35;0.95;;;;;;;12.72;100.00;99887.63;6295930;28;20519;-77
2022/10/02 06:30:09;;;;;;;1.20;1.05;;;;;;;12.85;100.00;99885.78;6294559;28;20123;-77
2022/10/02 06:33:23;;;;;;;1.83;1.45;;;;;;;12.93;100.00;99882.59;6294592;28;20041;-80
2022/10/02 06:36:26;;;;;;;4.47;1.83;;;;;;;12.95;100.00;99892.03;6295865;28;20044;-80
2022/10/02 06:39:50;;;;;;;2.35;1.45;;;;;;;12.89;100.00;99884.63;6281703;28;20055;-79
2022/10/02 06:43:18;;;;;;;2.53;1.27;;;;;;;12.93;100.00;99882.59;6299115;28;20054;-80
2022/10/02 06:46:20;;;;;;;1.20;0.90;;;;;;;13.04;100.00;99888.72;6299188;28;20052;-80
2022/10/02 06:49:56;;;;;;;6.13;1.80;;;;;;;13.19;100.00;99894.59;6299807;28;20087;-76
2022/10/02 06:53:19;;;;;;;2.47;1.00;;;;;;;13.32;100.00;99891.09;6291371;28;20061;-77
2022/10/02 06:56:49;;;;;;;1.08;0.98;;;;;;;13.53;100.00;99891.25;6300143;28;20053;-77
2022/10/02 07:00:16;;;;;;;2.85;1.08;;;;;;;13.69;100.00;99884.75;6274767;28;20401;-77
2022/10/02 07:03:29;;;;;;;1.25;0.90;;;;;;;13.87;100.00;99895.59;6300025;28;20136;-77
2022/10/02 07:06:33;;;;;;;1.00;0.90;;;;;;;14.01;100.00;99898.94;6299932;28;20045;-76
2022/10/02 07:10:06;;;;;;;3.15;1.20;;;;;;;14.13;100.00;99900.59;6298345;28;20503;-76
2022/10/02 07:13:24;;;;;;;0.77;0.77;;;;;;;14.28;100.00;99906.44;6298375;28;20126;-76
2022/10/02 07:16:46;;;;;;;1.20;1.00;;;;;;;14.23;100.00;99912.06;6298581;28;20504;-76
2022/10/02 07:20:14;;;;;;;1.02;0.70;;;;;;;14.32;100.00;99911.31;6299752;28;20401;-77
2022/10/02 07:23:25;;;;;;;1.33;1.00;;;;;;;14.49;100.00;99914.41;6298213;28;20057;-77
2022/10/02 07:26:34;;;;;;;1.63;0.88;;;;;;;14.57;100.00;99914.66;6299495;28;20130;-76
2022/10/02 07:30:04;;;;;;;0.50;0.50;;;;;;;14.48;100.00;99915.38;6299223;28;20041;-77
2022/10/02 07:33:18;;;;;;;1.20;0.60;;;;;;;14.60;100.00;99922.31;6298225;28;20052;-79
2022/10/02 07:36:20;;;;;;;3.30;1.33;;;;;;;14.63;100.00;99932.53;6297937;28;20044;-80
2022/10/02 07:39:56;;;;;;;1.08;0.70;;;;;;;14.69;100.00;99936.47;6299236;28;20121;-79
2022/10/02 07:43:15;;;;;;;0.65;0.50;;;;;;;14.77;100.00;99934.06;6297704;28;20052;-77
2022/10/02 07:46:22;;;;;;;0.80;0.50;;;;;;;15.07;100.00;99922.00;6297687;28;20044;-77
2022/10/02 07:49:32;;;;;;;0.60;0.50;;;;;;;15.21;100.00;99923.53;6296928;28;20040;-79
2022/10/02 07:52:53;;;;;;;0.65;0.60;;;;;;;15.39;99.37;99929.06;6298735;28;20451;-77
2022/10/02 07:55:55;;;;;;;0.75;0.70;;;;;;;15.47;100.00;99935.34;6297685;28;20443;-80
2022/10/02 07:59:03;;;;;;;0.60;0.47;;;;;;;15.46;95.45;99946.84;6298651;28;20507;-79
2022/10/02 08:02:15;;;;;;;5.90;2.17;;;;;;;15.60;94.54;99943.03;6297446;28;20037;-79
2022/10/02 08:05:24;;;;;;;2.92;1.90;;;;;;;15.75;94.75;99948.00;6297345;28;20041;-79
2022/10/02 08:08:28;;;;;;;0.50;0.45;;;;;;;15.81;91.56;99950.09;6280427;28;20505;-79
2022/10/02 08:11:43;;;;;;;0.63;0.60;;;;;;;15.75;92.54;99950.63;6298197;28;20075;-76
2022/10/02 08:14:47;;;;;;;3.33;1.77;;;;;;;15.26;93.52;99953.72;6296949;28;20083;-76
2022/10/02 08:17:57;;;;;;;0.70;0.60;;;;;;;15.68;92.16;99945.84;6296927;28;20060;-76
2022/10/02 08:20:59;;;;;;;0.80;0.80;;;;;;;16.09;90.43;99940.72;6298045;28;20051;-77
2022/10/02 08:24:07;;;;;;;4.60;1.77;;;;;;;16.27;88.91;99947.00;6296960;28;20716;-76
2022/10/02 08:27:14;;;;;;;0.90;0.60;;;;;;;15.75;88.91;99948.84;6297970;28;20041;-76
2022/10/02 08:30:15;;;;;;;1.75;0.50;;;;;;;15.78;90.13;99958.28;6297588;28;20408;-76
2022/10/02 08:33:21;;;;;;;1.48;0.70;;;;;;;15.96;91.50;99961.13;6296567;28;20123;-77
2022/10/02 08:36:51;;;;;;;0.82;0.60;;;;;;;16.22;86.40;99964.16;6279810;28;20052;-76
2022/10/02 08:40:23;;;;;;;2.42;0.98;;;;;;;16.31;90.38;99958.13;6297605;28;20048;-76
2022/10/02 08:43:26;;;;;;;3.10;0.80;;;;;;;16.70;87.74;99958.25;6297534;28;20043;-79
2022/10/02 08:46:40;;;;;;;1.52;0.60;;;;;;;17.02;86.14;99960.66;6297478;28;20305;-79
2022/10/02 08:50:10;;;;;;;0.50;0.45;;;;;;;17.05;81.24;99960.41;6296243;28;20412;-80
2022/10/02 08:53:47;;;;;;;2.42;0.68;;;;;;;17.24;82.33;99962.22;6297430;28;20445;-79
2022/10/02 08:57:14;;;;;;;0.80;0.63;;;;;;;17.49;79.18;99965.25;6297318;28;20055;-79
2022/10/02 09:00:24;;;;;;;1.08;0.60;;;;;;;17.45;78.80;99967.34;6295072;28;20504;-77
2022/10/02 09:03:59;;;;;;;0.88;0.55;;;;;;;18.01;76.97;99964.91;6295900;28;20416;-76
2022/10/02 09:07:46;;;;;;;0.73;0.55;;;;;;;17.72;80.92;99963.13;6297099;28;20032;-79
2022/10/02 09:11:00;;;;;;;0.40;0.40;;;;;;;17.87;76.40;99967.03;6229523;28;20046;-77
2022/10/02 09:14:13;;;;;;;0.93;0.55;;;;;;;18.35;76.80;99967.84;6296949;28;20045;-77
2022/10/02 09:17:35;;;;;;;0.73;0.40;;;;;;;17.84;78.15;99966.47;6296894;28;20041;-77
2022/10/02 09:21:02;;;;;;;0.60;0.52;;;;;;;17.98;75.20;99962.56;6295479;28;20458;-80
2022/10/02 09:24:21;;;;;;;6.55;0.80;;;;;;;18.40;74.51;99962.94;6295814;28;20135;-80
2022/10/02 09:27:37;;;;;;;0.35;0.30;;;;;;;17.64;80.39;99953.28;6278812;28;20052;-78
2022/10/02 09:31:10;;;;;;;0.40;0.40;;;;;;;17.70;76.50;99943.97;6295143;28;20079;-78
2022/10/02 09:34:38;;;;;;;2.90;0.50;;;;;;;17.94;77.09;99946.19;6278636;28;20076;-76
2022/10/02 09:38:05;;;;;;;2.17;0.60;;;;;;;18.03;78.22;99944.47;6296575;28;20435;-77
2022/10/02 09:41:36;;;;;;;1.60;0.60;;;;;;;17.35;81.60;99947.22;6270523;28;20049;-76
2022/10/02 09:45:02;;;;;;;1.33;0.70;;;;;;;18.30;77.28;99952.44;6295275;28;20094;-76
2022/10/02 09:48:48;;;;;;;0.60;0.50;;;;;;;17.79;74.19;99951.06;6278523;28;20110;-76
2022/10/02 09:52:09;;;;;;;0.50;0.50;;;;;;;18.24;73.74;99950.38;6210733;28;20069;-76
2022/10/02 09:56:03;;;;;;;1.88;0.65;;;;;;;18.85;65.54;99942.84;6249090;28;20394;-80
2022/10/02 09:59:50;;;;;;;0.68;0.47;;;;;;;18.25;69.50;99946.75;6245888;28;20045;-80
2022/10/02 10:03:28;;;;;;;3.05;1.20;;;;;;;19.12;70.41;99945.41;6273216;28;20428;-80
2022/10/02 10:06:56;;;;;;;1.83;0.88;;;;;;;18.14;71.42;99944.31;6294935;28;20059;-80
2022/10/02 10:10:18;;;;;;;0.93;0.60;;;;;;;18.65;70.83;99939.44;6296136;28;20047;-76
2022/10/02 10:13:31;;;;;;;2.93;0.53;;;;;;;18.47;70.62;99940.25;6298824;28;20041;-76
2022/10/02 10:17:04;;;;;;;1.17;0.77;;;;;;;19.28;72.23;99944.72;6299926;28;20404;-76
2022/10/02 10:20:36;;;;;;;0.85;0.43;;;;;;;18.67;69.29;99940.13;6283022;28;20050;-76
2022/10/02 10:24:09;;;;;;;1.30;0.68;;;;;;;19.31;67.64;99943.56;6300911;28;20063;-76
2022/10/02 10:27:37;;;;;;;0.45;0.45;;;;;;;19.04;71.79;99933.94;6299645;28;20416;-76
2022/10/02 10:30:56;;;;;;;0.55;0.35;;;;;;;18.45;71.80;99942.22;6281197;28;20056;-75
2022/10/02 10:34:18;;;;;;;0.63;0.47;;;;;;;18.08;74.49;99943.06;6282848;28;20051;-77
2022/10/02 10:40:47;;;;;;;1.17;0.50;;;;;;;18.76;67.58;99933.13;6300533;28;20363;-80
2022/10/02 10:44:20;;;;;;;0.98;0.50;;;;;;;17.94;68.70;99921.59;6282518;28;20594;-80
2022/10/02 10:47:32;;;;;;;1.13;0.50;;;;;;;18.72;69.40;99924.69;6300351;28;20052;-80
2022/10/02 10:50:43;;;;;;;2.75;0.50;;;;;;;19.50;64.64;99916.13;6298829;28;20497;-76
2022/10/02 10:54:04;;;;;;;1.00;0.63;;;;;;;18.68;69.64;99924.13;6300020;28;20419;-76
2022/10/02 10:57:34;;;;;;;2.50;0.52;;;;;;;18.78;70.88;99916.16;6278945;28;20064;-76
2022/10/02 11:00:48;;;;;;;1.48;0.57;;;;;;;18.56;66.01;99921.84;6299954;28;20078;-76
2022/10/02 11:04:06;;;;;;;0.93;0.70;;;;;;;18.36;66.83;99916.66;6281932;28;20144;-76
2022/10/02 11:07:44;;;;;;;4.57;0.73;;;;;;;18.31;66.23;99911.84;6299935;28;20560;-76
2022/10/02 11:11:06;;;;;;;0.95;0.43;;;;;;;18.23;59.32;99919.66;6281789;28;20103;-79
2022/10/02 11:14:13;;;;;;;0.90;0.30;;;;;;;18.86;60.08;99904.84;6299760;28;20033;-79
2022/10/02 11:17:32;;;;;;;0.30;0.20;;;;;;;18.16;63.45;99913.31;6298513;28;20068;-79
2022/10/02 11:20:43;;;;;;;0.60;0.40;;;;;;;18.61;62.62;99909.84;6281557;28;20048;-79
2022/10/02 11:23:52;;;;;;;4.15;0.88;;;;;;;19.02;62.31;99906.81;6297328;28;20068;-79
2022/10/02 11:27:05;;;;;;;0.40;0.40;;;;;;;19.13;60.06;99903.94;6299410;28;20037;-80
2022/10/02 11:30:19;;;;;;;0.47;0.20;;;;;;;18.61;63.86;99903.72;6281346;28;20420;-79
2022/10/02 11:33:55;;;;;;;0.35;0.35;;;;;;;19.37;61.54;99895.34;6299261;28;20036;-80
2022/10/02 11:37:23;;;;;;;1.33;0.60;;;;;;;19.06;62.29;99897.59;6271023;28;20056;-79
2022/10/02 11:40:42;;;;;;;2.03;0.70;;;;;;;20.03;60.36;99896.59;6298297;28;20045;-80
2022/10/02 11:44:03;;;;;;;2.75;0.73;;;;;;;19.10;61.06;99902.41;6280972;28;20102;-80
2022/10/02 11:47:32;;;;;;;1.60;0.50;;;;;;;19.22;61.22;99896.91;6286164;28;20037;-79
2022/10/02 11:50:51;;;;;;;3.10;0.68;;;;;;;18.79;61.31;99896.69;6310995;28;20296;-80
2022/10/02 11:54:17;;;;;;;1.00;0.40;;;;;;;18.45;60.70;99896.44;6308483;28;20094;-80
2022/10/02 11:57:52;;;;;;;0.98;0.50;;;;;;;18.23;65.19;99884.50;6309192;28;20036;-80
2022/10/02 12:00:55;;;;;;;0.80;0.70;;;;;;;17.94;67.19;99888.09;6310946;28;20044;-80
2022/10/02 12:04:28;;;;;;;1.15;0.70;;;;;;;18.17;65.92;99885.09;6306782;28;20415;-80
2022/10/02 12:07:38;;;;;;;0.40;0.40;;;;;;;18.03;63.24;99887.22;6290127;28;20059;-79
2022/10/02 12:11:05;;;;;;;0.40;0.40;;;;;;;18.63;64.02;99873.53;6306675;28;20041;-80
2022/10/02 12:14:26;;;;;;;0.55;0.40;;;;;;;18.39;65.10;99873.28;6309517;28;20073;-80
2022/10/02 12:17:55;;;;;;;4.50;0.73;;;;;;;18.28;65.06;99883.09;6309644;28;20075;-80
2022/10/02 12:28:39;;;;;;;1.02;0.50;;;;;;;17.95;62.14;99879.19;6306434;28;20142;-76
2022/10/02 12:31:50;;;;;;;1.40;0.77;;;;;;;17.66;62.20;99866.91;6308417;28;20487;-77
2022/10/02 12:35:05;;;;;;;0.30;0.30;;;;;;;17.93;65.62;99865.31;6307211;28;20040;-76
2022/10/02 12:38:20;;;;;;;4.45;0.77;;;;;;;17.47;65.80;99865.16;6307490;28;20045;-76
2022/10/02 12:41:34;;;;;;;2.22;0.45;;;;;;;17.84;65.90;99859.09;6290267;28;20052;-79
2022/10/02 12:44:57;;;;;;;0.20;0.20;;;;;;;18.49;64.71;99856.41;6306849;28;20102;-80
2022/10/02 12:48:25;;;;;;;0.88;0.45;;;;;;;18.35;59.75;99861.38;6309090;28;20067;-80
2022/10/02 12:51:33;;;;;;;1.13;0.25;;;;;;;17.81;57.06;99871.72;6307069;28;20492;-80
2022/10/02 12:55:13;;;;;;;3.88;0.80;;;;;;;17.79;59.07;99868.38;6308596;28;20105;-80
2022/10/02 12:58:32;;;;;;;0.40;0.38;;;;;;;17.57;59.35;99853.75;6293590;28;20056;-76
2022/10/02 13:01:51;;;;;;;1.40;0.85;;;;;;;17.96;55.92;99861.56;6306597;28;20053;-76
2022/10/02 13:05:19;;;;;;;1.67;0.47;;;;;;;18.02;52.28;99858.34;6306387;28;20551;-76
2022/10/02 13:09:04;;;;;;;0.52;0.20;;;;;;;18.52;53.01;99852.63;6308801;28;20047;-76
2022/10/02 13:12:40;;;;;;;0.20;0.20;;;;;;;18.19;53.12;99857.56;6281353;28;20056;-77
2022/10/02 13:16:07;;;;;;;0.30;0.30;;;;;;;18.37;56.42;99862.88;6306915;28;20130;-77
2022/10/02 13:19:14;;;;;;;0.52;0.38;;;;;;;18.61;55.23;99864.09;6305648;28;20468;-77
2022/10/02 13:22:18;;;;;;;0.38;0.32;;;;;;;18.71;56.12;99859.56;6306442;28;20483;-77
2022/10/02 13:25:45;;;;;;;1.45;0.40;;;;;;;18.96;57.71;99844.78;6308257;28;20036;-78
2022/10/02 13:29:24;;;;;;;0.30;0.30;;;;;;;19.01;57.10;99847.81;6267623;28;20117;-76
2022/10/02 13:32:30;;;;;;;2.28;0.40;;;;;;;18.90;52.94;99840.09;6253436;28;20119;-76
2022/10/02 13:35:36;;;;;;;0.60;0.40;;;;;;;18.86;54.65;99839.59;6255379;28;20485;-76
2022/10/02 13:39:21;;;;;;;0.38;0.38;;;;;;;18.70;52.48;99831.50;6306332;28;20480;-76
2022/10/02 13:42:50;;;;;;;0.77;0.50;;;;;;;18.35;53.29;99830.50;6307046;28;20044;-76
2022/10/02 13:46:09;;;;;;;1.02;0.82;;;;;;;18.61;56.15;99837.66;6306566;28;20029;-77
2022/10/02 13:49:16;;;;;;;0.45;0.45;;;;;;;18.40;58.11;99837.97;6307579;28;20041;-76
2022/10/02 13:52:23;;;;;;;0.77;0.50;;;;;;;18.39;55.83;99836.28;6305969;28;20412;-75
2022/10/02 13:55:27;;;;;;;4.57;0.50;;;;;;;18.40;57.56;99830.03;6308623;28;20040;-76
2022/10/02 13:58:37;;;;;;;2.55;0.70;;;;;;;18.40;57.20;99841.44;6291611;28;20056;-76
2022/10/02 14:01:56;;;;;;;1.88;0.63;;;;;;;18.44;58.57;99839.31;6296255;28;20059;-77
2022/10/02 14:05:15;;;;;;;1.40;0.60;;;;;;;18.33;58.11;99832.47;6312561;28;20071;-76
2022/10/02 14:08:53;;;;;;;1.63;0.70;;;;;;;18.31;58.18;99834.41;6321296;28;20090;-77
2022/10/02 14:12:19;;;;;;;2.25;0.68;;;;;;;17.94;61.37;99832.69;6320006;28;20132;-76
2022/10/02 14:15:25;;;;;;;0.82;0.38;;;;;;;17.99;61.69;99830.41;6319745;28;20044;-77
2022/10/02 14:18:54;;;;;;;1.38;0.68;;;;;;;18.02;61.10;99837.22;6319763;28;20055;-77
2022/10/02 14:22:01;;;;;;;2.20;0.88;;;;;;;18.02;59.64;99842.50;6302925;28;20044;-77
2022/10/02 14:25:21;;;;;;;2.05;0.50;;;;;;;17.91;59.92;99835.59;6319701;28;20074;-77
2022/10/02 14:28:44;;;;;;;0.32;0.32;;;;;;;17.77;61.31;99825.47;6319781;28;20040;-76
2022/10/02 14:32:01;;;;;;;1.90;0.57;;;;;;;17.67;59.19;99825.53;6319567;28;20132;-77
2022/10/02 14:35:13;;;;;;;0.77;0.65;;;;;;;17.59;59.01;99822.78;6320807;28;20625;-77
2022/10/02 14:38:29;;;;;;;1.75;0.70;;;;;;;17.51;60.20;99823.50;6319729;28;20502;-77
2022/10/02 14:41:51;;;;;;;1.80;0.90;;;;;;;17.45;61.09;99824.91;6319548;28;20044;-77
2022/10/02 14:44:57;;;;;;;6.93;1.17;;;;;;;17.51;63.08;99821.69;6319424;28;20131;-77
2022/10/02 14:48:09;;;;;;;3.75;1.02;;;;;;;17.46;62.46;99821.31;6319620;28;20081;-77
2022/10/02 14:51:19;;;;;;;2.33;0.57;;;;;;;17.36;64.37;99815.22;6320225;28;20052;-76
2022/10/02 14:54:33;;;;;;;2.80;1.02;;;;;;;17.26;64.67;99811.78;6320691;28;20043;-76
2022/10/02 14:58:11;;;;;;;1.08;0.70;;;;;;;16.97;65.80;99812.66;6319552;28;20071;-77
2022/10/02 15:01:23;;;;;;;0.70;0.63;;;;;;;16.84;67.03;99809.47;6325740;28;20119;-77
2022/10/02 15:04:26;;;;;;;0.88;0.70;;;;;;;16.70;64.54;99816.81;6323911;28;20485;-77
2022/10/02 15:19:17;;;;;;;4.15;1.23;;;;;;;16.56;67.66;99813.75;6393156;27;20369;-74
2022/10/02 15:22:27;;;;;;;3.17;1.10;;;;;;;16.46;66.59;99811.13;6390576;27;20039;-75
2022/10/02 15:25:42;;;;;;;3.58;1.92;;;;;;;16.43;68.30;99808.75;6393040;27;20043;-74
2022/10/02 15:29:04;;;;;;;2.10;1.08;;;;;;;16.50;69.04;99809.88;6390880;27;20031;-74
2022/10/02 15:32:24;;;;;;;;;;;;;;;16.34;67.78;99813.03;6392811;27;20047;-74
2022/10/02 15:35:31;;;;;;;2.92;1.33;;;;;;;16.20;68.92;99810.78;6391007;27;19929;-74
2022/10/02 15:38:38;;;;;;;2.78;1.40;;;;;;;16.08;69.07;99808.28;6389419;27;20043;-75
2022/10/02 15:41:39;;;;;;;4.70;1.05;;;;;;;16.01;70.34;99808.97;6393090;27;20042;-75